sensor_id;sensor_type;location;lat;lon;timestamp;P1;durP1;ratioP1;P2;durP2;ratioP2
58982;SDS011;44771;49.982;8.560;2022-11-14T00:02:06;24.48;;;19.42;;
58982;SDS011;44771;49.982;8.560;2022-11-14T00:07:08;22.02;;;18.20;;
58982;SDS011;44771;49.982;8.560;2022-11-14T00:12:10;28.52;;;20.10;;
58982;SDS011;44771;49.982;8.560;2022-11-14T00:17:14;24.70;;;18.02;;
58982;SDS011;44771;49.982;8.560;2022-11-14T00:22:16;26.35;;;18.30;;
58982;SDS011;44771;49.982;8.560;2022-11-14T00:27:17;25.58;;;17.85;;
58982;SDS011;44771;49.982;8.560;2022-11-14T00:32:21;25.33;;;17.77;;
58982;SDS011;44771;49.982;8.560;2022-11-14T00:37:22;24.00;;;18.02;;
58982;SDS011;44771;49.982;8.560;2022-11-14T00:42:24;38.35;;;22.30;;
58982;SDS011;44771;49.982;8.560;2022-11-14T00:47:27;49.85;;;25.45;;
58982;SDS011;44771;49.982;8.560;2022-11-14T00:52:29;84.68;;;27.17;;
58982;SDS011;44771;49.982;8.560;2022-11-14T00:57:31;92.70;;;26.73;;
58982;SDS011;44771;49.982;8.560;2022-11-14T01:02:34;47.88;;;24.37;;
58982;SDS011;44771;49.982;8.560;2022-11-14T01:07:36;118.03;;;27.75;;
58982;SDS011;44771;49.982;8.560;2022-11-14T01:12:37;47.55;;;23.12;;
58982;SDS011;44771;49.982;8.560;2022-11-14T01:17:40;76.32;;;27.27;;
58982;SDS011;44771;49.982;8.560;2022-11-14T01:22:42;89.32;;;26.70;;
58982;SDS011;44771;49.982;8.560;2022-11-14T01:27:44;42.25;;;25.12;;
58982;SDS011;44771;49.982;8.560;2022-11-14T01:32:47;43.15;;;23.35;;
58982;SDS011;44771;49.982;8.560;2022-11-14T01:37:49;53.72;;;22.75;;
58982;SDS011;44771;49.982;8.560;2022-11-14T01:48:25;50.47;;;22.27;;
58982;SDS011;44771;49.982;8.560;2022-11-14T01:53:32;54.00;;;24.10;;
58982;SDS011;44771;49.982;8.560;2022-11-14T01:58:34;58.60;;;23.35;;
58982;SDS011;44771;49.982;8.560;2022-11-14T02:03:40;48.22;;;23.42;;
58982;SDS011;44771;49.982;8.560;2022-11-14T02:08:44;156.10;;;27.62;;
58982;SDS011;44771;49.982;8.560;2022-11-14T02:13:46;36.72;;;22.48;;
58982;SDS011;44771;49.982;8.560;2022-11-14T02:18:49;119.25;;;27.58;;
58982;SDS011;44771;49.982;8.560;2022-11-14T02:23:52;158.25;;;29.40;;
58982;SDS011;44771;49.982;8.560;2022-11-14T02:28:54;63.22;;;25.48;;
58982;SDS011;44771;49.982;8.560;2022-11-14T02:33:56;107.47;;;24.77;;
58982;SDS011;44771;49.982;8.560;2022-11-14T02:38:59;35.50;;;21.52;;
58982;SDS011;44771;49.982;8.560;2022-11-14T02:44:01;33.20;;;19.80;;
58982;SDS011;44771;49.982;8.560;2022-11-14T02:49:03;34.25;;;21.37;;
58982;SDS011;44771;49.982;8.560;2022-11-14T02:54:06;47.03;;;21.45;;
58982;SDS011;44771;49.982;8.560;2022-11-14T02:59:08;31.27;;;20.23;;
58982;SDS011;44771;49.982;8.560;2022-11-14T03:04:09;26.17;;;18.48;;
58982;SDS011;44771;49.982;8.560;2022-11-14T03:09:12;36.95;;;21.45;;
58982;SDS011;44771;49.982;8.560;2022-11-14T03:14:18;56.47;;;24.15;;
58982;SDS011;44771;49.982;8.560;2022-11-14T03:19:20;47.90;;;21.73;;
58982;SDS011;44771;49.982;8.560;2022-11-14T03:24:23;108.53;;;24.77;;
58982;SDS011;44771;49.982;8.560;2022-11-14T03:29:25;35.28;;;21.65;;
58982;SDS011;44771;49.982;8.560;2022-11-14T03:34:42;29.52;;;18.62;;
58982;SDS011;44771;49.982;8.560;2022-11-14T03:39:45;37.80;;;19.17;;
58982;SDS011;44771;49.982;8.560;2022-11-14T03:44:46;39.05;;;20.45;;
58982;SDS011;44771;49.982;8.560;2022-11-14T03:49:48;29.08;;;19.58;;
58982;SDS011;44771;49.982;8.560;2022-11-14T03:54:51;33.15;;;20.42;;
58982;SDS011;44771;49.982;8.560;2022-11-14T03:59:53;29.30;;;19.73;;
58982;SDS011;44771;49.982;8.560;2022-11-14T04:04:55;28.00;;;19.60;;
58982;SDS011;44771;49.982;8.560;2022-11-14T04:15:18;51.08;;;20.00;;
58982;SDS011;44771;49.982;8.560;2022-11-14T04:20:20;31.17;;;19.33;;
58982;SDS011;44771;49.982;8.560;2022-11-14T04:25:23;33.80;;;18.95;;
58982;SDS011;44771;49.982;8.560;2022-11-14T04:30:25;38.78;;;18.40;;
58982;SDS011;44771;49.982;8.560;2022-11-14T04:35:34;26.70;;;18.33;;
58982;SDS011;44771;49.982;8.560;2022-11-14T04:40:37;23.12;;;17.58;;
58982;SDS011;44771;49.982;8.560;2022-11-14T04:45:39;24.95;;;17.85;;
58982;SDS011;44771;49.982;8.560;2022-11-14T04:50:41;24.12;;;17.92;;
58982;SDS011;44771;49.982;8.560;2022-11-14T04:55:46;25.48;;;16.77;;
58982;SDS011;44771;49.982;8.560;2022-11-14T05:00:48;26.52;;;17.98;;
58982;SDS011;44771;49.982;8.560;2022-11-14T05:17:20;21.87;;;17.45;;
58982;SDS011;44771;49.982;8.560;2022-11-14T05:22:22;23.17;;;16.80;;
58982;SDS011;44771;49.982;8.560;2022-11-14T05:27:24;24.45;;;16.37;;
58982;SDS011;44771;49.982;8.560;2022-11-14T05:32:27;24.23;;;17.95;;
58982;SDS011;44771;49.982;8.560;2022-11-14T05:37:29;26.08;;;18.10;;
58982;SDS011;44771;49.982;8.560;2022-11-14T05:42:32;27.37;;;18.35;;
58982;SDS011;44771;49.982;8.560;2022-11-14T05:47:35;27.67;;;17.08;;
58982;SDS011;44771;49.982;8.560;2022-11-14T05:52:37;23.87;;;16.92;;
58982;SDS011;44771;49.982;8.560;2022-11-14T05:57:39;29.23;;;18.20;;
58982;SDS011;44771;49.982;8.560;2022-11-14T06:02:43;31.02;;;18.37;;
58982;SDS011;44771;49.982;8.560;2022-11-14T06:07:47;24.73;;;17.65;;
58982;SDS011;44771;49.982;8.560;2022-11-14T06:12:54;30.02;;;18.48;;
58982;SDS011;44771;49.982;8.560;2022-11-14T06:17:57;34.72;;;20.08;;
58982;SDS011;44771;49.982;8.560;2022-11-14T06:23:00;34.67;;;20.48;;
58982;SDS011;44771;49.982;8.560;2022-11-14T06:28:02;28.30;;;18.20;;
58982;SDS011;44771;49.982;8.560;2022-11-14T06:33:20;32.60;;;18.92;;
58982;SDS011;44771;49.982;8.560;2022-11-14T06:38:29;26.37;;;18.08;;
58982;SDS011;44771;49.982;8.560;2022-11-14T06:43:37;27.30;;;18.10;;
58982;SDS011;44771;49.982;8.560;2022-11-14T06:48:43;25.52;;;17.83;;
58982;SDS011;44771;49.982;8.560;2022-11-14T06:53:46;32.08;;;18.25;;
58982;SDS011;44771;49.982;8.560;2022-11-14T06:58:57;30.77;;;19.17;;
58982;SDS011;44771;49.982;8.560;2022-11-14T07:04:12;27.52;;;19.55;;
58982;SDS011;44771;49.982;8.560;2022-11-14T07:13:01;27.62;;;17.62;;
58982;SDS011;44771;49.982;8.560;2022-11-14T07:15:34;26.12;;;17.50;;
58982;SDS011;44771;49.982;8.560;2022-11-14T07:20:44;28.98;;;17.05;;
58982;SDS011;44771;49.982;8.560;2022-11-14T07:25:47;30.45;;;19.35;;
58982;SDS011;44771;49.982;8.560;2022-11-14T07:30:52;26.65;;;18.65;;
58982;SDS011;44771;49.982;8.560;2022-11-14T07:35:59;41.37;;;22.25;;
58982;SDS011;44771;49.982;8.560;2022-11-14T07:41:10;51.40;;;24.40;;
58982;SDS011;44771;49.982;8.560;2022-11-14T07:46:14;44.90;;;23.05;;
58982;SDS011;44771;49.982;8.560;2022-11-14T07:51:23;55.30;;;25.00;;
58982;SDS011;44771;49.982;8.560;2022-11-14T07:56:42;44.55;;;22.42;;
58982;SDS011;44771;49.982;8.560;2022-11-14T08:01:50;52.15;;;23.77;;
58982;SDS011;44771;49.982;8.560;2022-11-14T08:12:36;48.67;;;22.67;;
58982;SDS011;44771;49.982;8.560;2022-11-14T08:17:45;54.92;;;24.25;;
58982;SDS011;44771;49.982;8.560;2022-11-14T08:23:29;56.17;;;24.83;;
58982;SDS011;44771;49.982;8.560;2022-11-14T09:00:32;47.00;;;23.38;;
58982;SDS011;44771;49.982;8.560;2022-11-14T09:06:00;48.97;;;22.75;;
58982;SDS011;44771;49.982;8.560;2022-11-14T09:16:29;42.92;;;20.98;;
58982;SDS011;44771;49.982;8.560;2022-11-14T09:21:31;52.53;;;22.98;;
58982;SDS011;44771;49.982;8.560;2022-11-14T09:26:33;44.40;;;22.27;;
58982;SDS011;44771;49.982;8.560;2022-11-14T09:31:36;47.03;;;23.17;;
58982;SDS011;44771;49.982;8.560;2022-11-14T09:36:38;40.50;;;22.27;;
58982;SDS011;44771;49.982;8.560;2022-11-14T09:41:44;40.92;;;22.67;;
58982;SDS011;44771;49.982;8.560;2022-11-14T09:47:00;40.90;;;22.45;;
58982;SDS011;44771;49.982;8.560;2022-11-14T09:52:08;40.58;;;20.92;;
58982;SDS011;44771;49.982;8.560;2022-11-14T09:57:21;32.55;;;19.33;;
58982;SDS011;44771;49.982;8.560;2022-11-14T10:02:33;33.72;;;20.33;;
58982;SDS011;44771;49.982;8.560;2022-11-14T10:07:46;31.85;;;19.35;;
58982;SDS011;44771;49.982;8.560;2022-11-14T10:13:05;32.65;;;19.87;;
58982;SDS011;44771;49.982;8.560;2022-11-14T10:18:26;31.25;;;19.25;;
58982;SDS011;44771;49.982;8.560;2022-11-14T10:23:40;32.97;;;19.75;;
58982;SDS011;44771;49.982;8.560;2022-11-14T10:28:56;32.03;;;20.15;;
58982;SDS011;44771;49.982;8.560;2022-11-14T10:34:10;32.92;;;19.58;;
58982;SDS011;44771;49.982;8.560;2022-11-14T10:39:17;30.00;;;20.23;;
58982;SDS011;44771;49.982;8.560;2022-11-14T10:44:23;35.47;;;19.80;;
58982;SDS011;44771;49.982;8.560;2022-11-14T10:49:33;30.42;;;20.25;;
58982;SDS011;44771;49.982;8.560;2022-11-14T10:54:39;28.62;;;17.95;;
58982;SDS011;44771;49.982;8.560;2022-11-14T10:59:46;34.70;;;19.92;;
58982;SDS011;44771;49.982;8.560;2022-11-14T11:04:49;29.80;;;18.52;;
58982;SDS011;44771;49.982;8.560;2022-11-14T11:09:51;26.80;;;18.42;;
58982;SDS011;44771;49.982;8.560;2022-11-14T11:15:07;28.60;;;18.35;;
58982;SDS011;44771;49.982;8.560;2022-11-14T11:25:25;30.48;;;18.00;;
58982;SDS011;44771;49.982;8.560;2022-11-14T11:30:28;26.15;;;18.92;;
58982;SDS011;44771;49.982;8.560;2022-11-14T11:35:32;25.83;;;18.27;;
58982;SDS011;44771;49.982;8.560;2022-11-14T11:40:35;27.62;;;18.37;;
58982;SDS011;44771;49.982;8.560;2022-11-14T11:45:37;27.45;;;20.80;;
58982;SDS011;44771;49.982;8.560;2022-11-14T11:50:43;22.45;;;17.17;;
58982;SDS011;44771;49.982;8.560;2022-11-14T11:55:45;24.15;;;19.25;;
58982;SDS011;44771;49.982;8.560;2022-11-14T12:00:50;22.67;;;17.67;;
58982;SDS011;44771;49.982;8.560;2022-11-14T12:05:56;24.63;;;17.30;;
58982;SDS011;44771;49.982;8.560;2022-11-14T12:11:03;24.25;;;16.92;;
58982;SDS011;44771;49.982;8.560;2022-11-14T12:16:12;22.52;;;17.35;;
58982;SDS011;44771;49.982;8.560;2022-11-14T12:21:29;22.62;;;17.15;;
58982;SDS011;44771;49.982;8.560;2022-11-14T12:26:47;21.15;;;17.12;;
58982;SDS011;44771;49.982;8.560;2022-11-14T12:32:02;19.02;;;15.60;;
58982;SDS011;44771;49.982;8.560;2022-11-14T12:37:08;22.87;;;16.92;;
58982;SDS011;44771;49.982;8.560;2022-11-14T12:42:18;23.15;;;17.33;;
58982;SDS011;44771;49.982;8.560;2022-11-14T12:47:22;22.30;;;17.45;;
58982;SDS011;44771;49.982;8.560;2022-11-14T12:52:45;21.55;;;16.23;;
58982;SDS011;44771;49.982;8.560;2022-11-14T12:57:53;25.58;;;17.40;;
58982;SDS011;44771;49.982;8.560;2022-11-14T13:03:18;24.15;;;18.12;;
58982;SDS011;44771;49.982;8.560;2022-11-14T13:08:36;23.20;;;17.50;;
58982;SDS011;44771;49.982;8.560;2022-11-14T13:13:54;21.58;;;16.85;;
58982;SDS011;44771;49.982;8.560;2022-11-14T13:19:11;18.50;;;16.10;;
58982;SDS011;44771;49.982;8.560;2022-11-14T13:24:20;20.40;;;16.27;;
58982;SDS011;44771;49.982;8.560;2022-11-14T13:34:56;25.90;;;16.80;;
58982;SDS011;44771;49.982;8.560;2022-11-14T13:40:06;25.98;;;16.17;;
58982;SDS011;44771;49.982;8.560;2022-11-14T13:45:22;18.48;;;15.27;;
58982;SDS011;44771;49.982;8.560;2022-11-14T13:50:44;20.45;;;15.80;;
58982;SDS011;44771;49.982;8.560;2022-11-14T13:55:55;19.52;;;16.00;;
58982;SDS011;44771;49.982;8.560;2022-11-14T14:01:04;19.17;;;15.70;;
58982;SDS011;44771;49.982;8.560;2022-11-14T14:11:34;17.85;;;15.63;;
58982;SDS011;44771;49.982;8.560;2022-11-14T14:16:48;24.60;;;15.95;;
58982;SDS011;44771;49.982;8.560;2022-11-14T14:21:55;20.77;;;16.35;;
58982;SDS011;44771;49.982;8.560;2022-11-14T14:27:04;17.37;;;15.68;;
58982;SDS011;44771;49.982;8.560;2022-11-14T14:32:22;20.33;;;16.02;;
58982;SDS011;44771;49.982;8.560;2022-11-14T14:37:26;21.23;;;15.35;;
58982;SDS011;44771;49.982;8.560;2022-11-14T14:42:35;17.70;;;15.82;;
58982;SDS011;44771;49.982;8.560;2022-11-14T14:47:57;20.10;;;15.55;;
58982;SDS011;44771;49.982;8.560;2022-11-14T14:53:03;19.83;;;15.10;;
58982;SDS011;44771;49.982;8.560;2022-11-14T14:58:21;18.65;;;14.65;;
58982;SDS011;44771;49.982;8.560;2022-11-14T15:03:30;19.55;;;15.45;;
58982;SDS011;44771;49.982;8.560;2022-11-14T15:08:37;20.23;;;15.63;;
58982;SDS011;44771;49.982;8.560;2022-11-14T15:13:40;19.30;;;15.98;;
58982;SDS011;44771;49.982;8.560;2022-11-14T15:18:43;20.70;;;16.90;;
58982;SDS011;44771;49.982;8.560;2022-11-14T15:23:46;20.62;;;16.73;;
58982;SDS011;44771;49.982;8.560;2022-11-14T15:29:04;21.87;;;16.77;;
58982;SDS011;44771;49.982;8.560;2022-11-14T15:34:20;18.80;;;16.80;;
58982;SDS011;44771;49.982;8.560;2022-11-14T15:39:25;21.40;;;17.20;;
58982;SDS011;44771;49.982;8.560;2022-11-14T15:44:31;21.58;;;17.67;;
58982;SDS011;44771;49.982;8.560;2022-11-14T15:49:48;18.37;;;15.13;;
58982;SDS011;44771;49.982;8.560;2022-11-14T15:55:00;20.25;;;16.25;;
58982;SDS011;44771;49.982;8.560;2022-11-14T16:00:04;23.87;;;16.75;;
58982;SDS011;44771;49.982;8.560;2022-11-14T16:05:10;18.10;;;16.13;;
58982;SDS011;44771;49.982;8.560;2022-11-14T17:06:57;17.62;;;14.93;;
58982;SDS011;44771;49.982;8.560;2022-11-14T17:12:01;20.92;;;14.70;;
58982;SDS011;44771;49.982;8.560;2022-11-14T17:17:03;18.33;;;15.02;;
58982;SDS011;44771;49.982;8.560;2022-11-14T17:22:08;16.48;;;14.98;;
58982;SDS011;44771;49.982;8.560;2022-11-14T17:27:18;18.60;;;14.18;;
58982;SDS011;44771;49.982;8.560;2022-11-14T17:32:21;21.02;;;15.82;;
58982;SDS011;44771;49.982;8.560;2022-11-14T17:37:23;17.17;;;14.80;;
58982;SDS011;44771;49.982;8.560;2022-11-14T17:53:07;21.37;;;14.87;;
58982;SDS011;44771;49.982;8.560;2022-11-14T18:03:27;15.20;;;13.70;;
58982;SDS011;44771;49.982;8.560;2022-11-14T18:13:49;15.30;;;13.70;;
58982;SDS011;44771;49.982;8.560;2022-11-14T18:29:42;22.87;;;13.93;;
58982;SDS011;44771;49.982;8.560;2022-11-14T19:16:59;18.65;;;14.90;;
58982;SDS011;44771;49.982;8.560;2022-11-14T19:33:12;19.50;;;13.48;;
58982;SDS011;44771;49.982;8.560;2022-11-14T19:38:31;17.52;;;14.32;;
58982;SDS011;44771;49.982;8.560;2022-11-14T20:42:12;18.83;;;14.52;;
58982;SDS011;44771;49.982;8.560;2022-11-14T20:53:01;16.08;;;14.20;;
58982;SDS011;44771;49.982;8.560;2022-11-14T21:04:05;21.15;;;14.73;;
58982;SDS011;44771;49.982;8.560;2022-11-14T21:09:16;20.60;;;14.93;;
58982;SDS011;44771;49.982;8.560;2022-11-14T21:14:26;18.48;;;14.80;;
58982;SDS011;44771;49.982;8.560;2022-11-14T21:19:33;21.48;;;16.83;;
58982;SDS011;44771;49.982;8.560;2022-11-14T21:24:45;18.00;;;15.57;;
58982;SDS011;44771;49.982;8.560;2022-11-14T21:36:32;16.83;;;15.13;;
58982;SDS011;44771;49.982;8.560;2022-11-14T21:42:17;17.35;;;14.98;;
58982;SDS011;44771;49.982;8.560;2022-11-14T21:47:54;18.70;;;16.02;;
58982;SDS011;44771;49.982;8.560;2022-11-14T21:53:23;21.48;;;16.33;;
58982;SDS011;44771;49.982;8.560;2022-11-14T21:58:40;19.62;;;15.70;;
58982;SDS011;44771;49.982;8.560;2022-11-14T22:03:59;16.58;;;14.98;;
58982;SDS011;44771;49.982;8.560;2022-11-14T22:09:10;13.82;;;12.35;;
58982;SDS011;44771;49.982;8.560;2022-11-14T22:14:20;17.20;;;12.45;;
58982;SDS011;44771;49.982;8.560;2022-11-14T22:19:34;15.23;;;12.98;;
58982;SDS011;44771;49.982;8.560;2022-11-14T22:24:36;17.83;;;13.27;;
58982;SDS011;44771;49.982;8.560;2022-11-14T22:29:53;16.85;;;14.18;;
58982;SDS011;44771;49.982;8.560;2022-11-14T22:34:57;15.45;;;13.85;;
58982;SDS011;44771;49.982;8.560;2022-11-14T22:40:00;16.25;;;14.13;;
58982;SDS011;44771;49.982;8.560;2022-11-14T22:46:37;15.60;;;13.93;;
58982;SDS011;44771;49.982;8.560;2022-11-14T22:51:08;15.82;;;14.02;;
58982;SDS011;44771;49.982;8.560;2022-11-14T22:56:33;19.37;;;13.52;;
58982;SDS011;44771;49.982;8.560;2022-11-14T23:01:45;15.60;;;13.50;;
58982;SDS011;44771;49.982;8.560;2022-11-14T23:07:03;17.73;;;13.98;;
58982;SDS011;44771;49.982;8.560;2022-11-14T23:12:06;16.50;;;13.62;;
58982;SDS011;44771;49.982;8.560;2022-11-14T23:17:09;14.60;;;12.90;;
58982;SDS011;44771;49.982;8.560;2022-11-14T23:22:14;18.42;;;13.62;;
58982;SDS011;44771;49.982;8.560;2022-11-14T23:27:19;15.20;;;13.20;;
58982;SDS011;44771;49.982;8.560;2022-11-14T23:32:25;16.00;;;13.88;;
58982;SDS011;44771;49.982;8.560;2022-11-14T23:37:29;16.20;;;14.25;;
58982;SDS011;44771;49.982;8.560;2022-11-14T23:42:35;16.40;;;13.62;;
58982;SDS011;44771;49.982;8.560;2022-11-14T23:47:40;15.05;;;13.45;;
58982;SDS011;44771;49.982;8.560;2022-11-14T23:52:46;18.48;;;15.20;;
58982;SDS011;44771;49.982;8.560;2022-11-14T23:57:51;19.50;;;14.77;;
